Almora, Minnesota
Current Conditions -  °F | °C
As of 2:15 PM on Thursday 30 Oct 2014 (Local Time) from KADC Reporting Station
Overcast Overcast  
Wind Chill: 30°   Ceiling: 2400
Heat Index: 39°   Visibility: 10mi
Dew Point: 30°   Wind: 16mph
Humidity: 70%   Direction: 340°NNW
Pressure: 30.19"   Gusts: 25mph
Location:  46.3245°N, 95.3401°W
Report Text: KADC 301915Z AUTO 34014G22KT 10SM OVC024 04/M01 A3019 RMK AO2
Loading
Personal Weather Stations






























Interactive Weather Map New forecast layout! Learn more

10-Day Weather Forecast

Advertisements
Track Severe Weather on mobile